Time;durP1;ratioP1;P1;durP2;ratioP2;P2;SDS_P1;SDS_P2;PMS_P1;PMS_P2;Temp;Humidity;BMP_temperature;BMP_pressure;BME280_temperature;BME280_humidity;BME280_pressure;Samples;Min_cycle;Max_cycle;Signal;HPM_P1;HPM_P2
2022/12/09 00:23:50;;;;;;;71.53;27.98;;;11.80;99.90;;;;;;5875014;23;20034;-92
2022/12/09 00:26:19;;;;;;;70.40;27.45;;;11.70;99.90;;;;;;4907966;29;20408;-93
2022/12/09 00:28:45;;;;;;;50.42;26.10;;;11.70;99.90;;;;;;4907104;29;20023;-91
2022/12/09 00:31:16;;;;;;;59.50;23.77;;;11.60;99.90;;;;;;4922482;29;20382;-91
2022/12/09 00:33:43;;;;;;;55.40;26.20;;;11.60;99.90;;;;;;4906122;29;20027;-90
2022/12/09 00:36:16;;;;;;;58.40;26.58;;;11.50;99.90;;;;;;4922332;29;20072;-92
2022/12/09 00:38:43;;;;;;;48.25;22.58;;;11.50;99.90;;;;;;4922298;29;20489;-91
2022/12/09 00:41:10;;;;;;;48.50;23.48;;;11.40;99.90;;;;;;4906708;29;20036;-90
2022/12/09 00:43:38;;;;;;;42.58;19.05;;;11.40;99.90;;;;;;4922293;29;20031;-92
2022/12/09 00:46:04;;;;;;;51.45;20.70;;;11.40;99.90;;;;;;4906652;29;20036;-89
2022/12/09 00:48:33;;;;;;;43.92;17.55;;;11.40;99.90;;;;;;4922254;29;20485;-91
2022/12/09 00:51:00;;;;;;;51.63;20.13;;;11.50;99.90;;;;;;4906636;29;20079;-92
2022/12/09 00:53:27;;;;;;;42.42;18.38;;;11.60;99.90;;;;;;4906442;29;20476;-91
2022/12/09 00:55:57;;;;;;;48.13;18.73;;;11.60;99.90;;;;;;4906402;29;20036;-92
2022/12/09 00:58:24;;;;;;;45.10;17.15;;;11.70;99.90;;;;;;4906299;29;20378;-90
2022/12/09 01:00:52;;;;;;;49.47;18.50;;;11.60;99.90;;;;;;4906480;29;20035;-92
2022/12/09 01:03:20;;;;;;;48.20;18.25;;;11.70;99.90;;;;;;4906617;29;20032;-91
2022/12/09 01:05:46;;;;;;;44.33;16.05;;;11.60;99.90;;;;;;4906116;29;20024;-90
2022/12/09 01:08:14;;;;;;;58.22;16.48;;;11.70;99.90;;;;;;4906234;29;20058;-91
2022/12/09 01:10:45;;;;;;;46.90;16.63;;;11.70;99.90;;;;;;4906034;29;20032;-90
2022/12/09 01:13:13;;;;;;;53.38;17.92;;;11.70;99.90;;;;;;4921837;29;20063;-92
2022/12/09 01:15:42;;;;;;;76.35;17.67;;;11.70;99.90;;;;;;4906056;29;20027;-90
2022/12/09 01:18:11;;;;;;;62.63;18.42;;;11.70;99.90;;;;;;4921614;29;20055;-90
2022/12/09 01:20:38;;;;;;;50.95;15.35;;;11.60;99.90;;;;;;4905850;29;20568;-93
2022/12/09 01:23:04;;;;;;;49.25;17.58;;;11.50;99.90;;;;;;4921562;29;20034;-91
2022/12/09 01:25:36;;;;;;;66.45;15.25;;;11.50;99.90;;;;;;4902558;29;20048;-93
2022/12/09 01:28:03;;;;;;;72.45;17.27;;;11.50;99.90;;;;;;4903346;29;20038;-94
2022/12/09 01:30:29;;;;;;;95.45;16.92;;;11.50;99.90;;;;;;4902181;29;20393;-93
2022/12/09 01:32:56;;;;;;;83.43;18.38;;;11.50;99.90;;;;;;4918259;29;20076;-92
2022/12/09 01:35:22;;;;;;;70.05;15.23;;;11.40;99.90;;;;;;4902379;29;20028;-91
2022/12/09 01:37:49;;;;;;;60.22;14.05;;;11.40;99.90;;;;;;4902651;29;20032;-91
2022/12/09 01:40:17;;;;;;;56.78;12.95;;;11.50;99.90;;;;;;4886580;29;20168;-92
2022/12/09 01:42:59;;;;;;;39.40;13.93;;;11.60;99.90;;;;;;4902418;29;20051;-92
2022/12/09 01:45:29;;;;;;;42.90;12.32;;;11.60;99.90;;;;;;4918000;29;20079;-92
2022/12/09 01:48:06;;;;;;;41.72;11.40;;;11.40;99.90;;;;;;4902104;29;20427;-92
2022/12/09 01:50:35;;;;;;;68.22;15.57;;;11.60;99.90;;;;;;4902085;29;20039;-91
2022/12/09 01:53:02;;;;;;;35.58;11.70;;;11.60;99.90;;;;;;4902088;29;20464;-92
2022/12/09 01:55:29;;;;;;;47.22;12.77;;;11.60;99.90;;;;;;4917994;29;20039;-90
2022/12/09 01:57:56;;;;;;;54.58;13.38;;;11.60;99.90;;;;;;4901894;29;20035;-93
2022/12/09 02:00:23;;;;;;;63.72;13.10;;;11.60;99.90;;;;;;4917804;29;20071;-92
2022/12/09 02:02:53;;;;;;;60.30;14.13;;;11.50;99.90;;;;;;4902042;29;20032;-91
2022/12/09 02:05:23;;;;;;;63.38;12.45;;;11.50;99.90;;;;;;4901872;29;20040;-91
2022/12/09 02:07:56;;;;;;;64.88;12.00;;;11.50;99.90;;;;;;4902816;29;20055;-91
2022/12/09 02:10:23;;;;;;;88.35;14.73;;;11.40;99.90;;;;;;4917655;29;20495;-92
2022/12/09 02:13:48;;;;;;;60.63;15.05;;;11.50;99.90;;;;;;4902865;29;20038;-90
2022/12/09 02:16:20;;;;;;;68.68;14.27;;;11.30;99.90;;;;;;4882172;29;20036;-90
2022/12/09 02:18:53;;;;;;;53.00;12.10;;;11.40;99.90;;;;;;4899715;29;20044;-91
2022/12/09 02:21:25;;;;;;;42.00;11.40;;;11.30;99.90;;;;;;4917385;29;20107;-92
2022/12/09 02:24:28;;;;;;;59.90;12.52;;;11.30;99.90;;;;;;4902916;29;20047;-91
2022/12/09 02:27:07;;;;;;;41.38;11.15;;;11.20;99.90;;;;;;4920567;29;20584;-91
2022/12/09 02:29:34;;;;;;;45.15;13.20;;;11.10;99.90;;;;;;4920697;29;20476;-92
2022/12/09 02:32:36;;;;;;;36.30;11.18;;;11.10;99.90;;;;;;4905231;29;20477;-91
2022/12/09 02:35:32;;;;;;;29.02;10.27;;;11.00;99.90;;;;;;4921157;29;20043;-92
2022/12/09 02:38:09;;;;;;;30.60;10.15;;;11.00;99.90;;;;;;4920377;29;20036;-91
2022/12/09 02:40:44;;;;;;;25.05;9.55;;;11.10;99.90;;;;;;4905003;29;20044;-93
2022/12/09 02:43:11;;;;;;;;;;;11.10;99.90;;;;;;4921106;29;20024;-90
2022/12/09 02:45:53;;;;;;;26.38;8.95;;;11.00;99.90;;;;;;4904882;29;19923;-92
2022/12/09 02:48:31;;;;;;;31.08;9.57;;;11.10;99.90;;;;;;4920617;29;20087;-91
2022/12/09 02:50:59;;;;;;;27.10;10.25;;;11.30;99.90;;;;;;4920399;29;20030;-91
2022/12/09 02:53:27;;;;;;;37.25;10.10;;;11.40;99.90;;;;;;4904817;29;20038;-90
2022/12/09 02:55:55;;;;;;;37.58;11.63;;;11.50;99.90;;;;;;4919811;29;20397;-90
2022/12/09 02:58:21;;;;;;;39.42;11.75;;;11.60;99.90;;;;;;4904943;29;20028;-92
2022/12/09 03:00:50;;;;;;;39.28;11.48;;;11.70;99.90;;;;;;4920053;29;20116;-92
2022/12/09 03:03:17;;;;;;;35.17;10.07;;;11.80;99.90;;;;;;4904504;29;20027;-92
2022/12/09 03:06:05;;;;;;;55.45;12.18;;;11.80;99.90;;;;;;4919947;29;20493;-91
2022/12/09 03:09:06;;;;;;;38.78;12.38;;;11.80;99.90;;;;;;4920022;29;20039;-91
2022/12/09 03:11:33;;;;;;;39.90;11.10;;;11.80;99.90;;;;;;4919636;29;20038;-92
2022/12/09 03:14:16;;;;;;;47.13;13.13;;;11.80;99.90;;;;;;4904422;29;20027;-91
2022/12/09 03:16:55;;;;;;;37.65;11.75;;;11.70;99.90;;;;;;4919910;29;20040;-91
2022/12/09 03:19:28;;;;;;;38.20;11.40;;;11.60;99.90;;;;;;4919849;29;20427;-90
2022/12/09 03:22:06;;;;;;;37.72;11.05;;;11.60;99.90;;;;;;4904493;29;20027;-90
2022/12/09 03:24:43;;;;;;;31.90;10.95;;;11.40;99.90;;;;;;4900774;29;20470;-91
2022/12/09 03:27:16;;;;;;;32.97;10.85;;;11.30;99.90;;;;;;4916596;29;20028;-92
2022/12/09 03:29:47;;;;;;;34.70;10.32;;;11.30;99.90;;;;;;4916647;29;20038;-93
2022/12/09 03:32:22;;;;;;;32.05;10.13;;;11.20;99.90;;;;;;4900893;29;20508;-93
2022/12/09 17:57:34;;;;;;;;;;;;;;;;;;;;;
2022/12/09 18:09:49;;;;;;;24.33;6.15;;;16.90;99.90;;;;;;5734913;23;20058;-93
2022/12/09 18:26:30;;;;;;;18.83;5.85;;;16.90;99.90;;;;;;5311555;23;20052;-92
2022/12/09 19:01:43;;;;;;;22.10;5.25;;;17.00;99.90;;;;;;5307924;23;20052;-91
2022/12/09 19:04:23;;;;;;;32.78;7.47;;;17.00;99.90;;;;;;4849227;29;20097;-89
2022/12/09 19:06:53;;;;;;;31.85;6.82;;;17.00;99.90;;;;;;4864254;29;20093;-91
2022/12/09 19:09:23;;;;;;;27.55;6.30;;;17.00;99.90;;;;;;4848815;29;20040;-92
2022/12/09 19:11:51;;;;;;;35.55;5.63;;;17.00;99.90;;;;;;4848691;29;20052;-91
2022/12/09 19:14:19;;;;;;;36.45;6.90;;;17.10;99.90;;;;;;4848703;29;20115;-94
2022/12/09 19:16:46;;;;;;;34.75;6.28;;;17.00;99.90;;;;;;4864240;29;20111;-90
2022/12/09 19:19:18;;;;;;;35.28;6.43;;;17.10;99.90;;;;;;4848596;29;20093;-89
2022/12/09 19:21:45;;;;;;;27.50;5.85;;;17.10;99.90;;;;;;4848916;29;20065;-91
2022/12/09 19:24:17;;;;;;;24.15;5.93;;;17.00;99.90;;;;;;4848846;29;20057;-91
2022/12/09 19:26:44;;;;;;;27.80;6.43;;;17.00;99.90;;;;;;4864108;29;20060;-89
2022/12/09 19:29:13;;;;;;;22.98;4.93;;;17.00;99.90;;;;;;4848853;29;20040;-88
2022/12/09 19:31:42;;;;;;;30.65;6.68;;;17.10;99.90;;;;;;4863683;29;20041;-88
2022/12/09 19:42:15;;;;;;;42.10;13.32;;;17.00;99.90;;;;;;4855311;29;20050;-91
2022/12/09 19:44:59;;;;;;;41.45;17.02;;;17.00;99.90;;;;;;4842515;29;20480;-90
2022/12/09 19:47:46;;;;;;;44.30;16.08;;;16.90;99.90;;;;;;4831118;29;20044;-91
2022/12/09 19:50:47;;;;;;;51.10;15.20;;;16.90;99.90;;;;;;4816329;29;20046;-88
2022/12/09 19:58:38;;;;;;;50.83;16.65;;;16.80;99.90;;;;;;4878017;29;20488;-90
2022/12/09 20:04:27;;;;;;;59.63;15.63;;;16.80;99.90;;;;;;4986059;23;20061;-90
2022/12/09 20:07:04;;;;;;;39.28;11.25;;;16.80;99.90;;;;;;4871122;29;20032;-89
2022/12/09 20:09:30;;;;;;;48.20;11.68;;;16.80;99.90;;;;;;4852825;29;20491;-92
2022/12/09 20:11:56;;;;;;;42.20;12.80;;;16.80;99.90;;;;;;4852479;29;20037;-91
2022/12/09 20:14:23;;;;;;;43.17;11.70;;;16.80;99.90;;;;;;4852856;29;20442;-90
2022/12/09 20:16:49;;;;;;;58.20;14.20;;;16.80;99.90;;;;;;4854050;29;20033;-90
2022/12/09 20:19:19;;;;;;;37.78;11.32;;;16.90;99.90;;;;;;4852673;29;20037;-90
2022/12/09 20:21:48;;;;;;;52.53;11.10;;;16.90;99.90;;;;;;4853400;29;20482;-91
2022/12/09 20:24:17;;;;;;;47.40;9.95;;;16.90;99.90;;;;;;4867562;29;20040;-91
2022/12/09 20:26:43;;;;;;;52.40;10.68;;;16.90;99.90;;;;;;4852771;29;20029;-93
2022/12/09 20:29:10;;;;;;;37.70;8.93;;;17.00;99.90;;;;;;4852548;29;20056;-92
2022/12/09 20:31:38;;;;;;;38.90;9.40;;;17.00;99.90;;;;;;4853029;29;20028;-91
2022/12/09 20:34:08;;;;;;;50.42;9.85;;;17.00;99.90;;;;;;4868898;29;20062;-89
2022/12/09 20:36:36;;;;;;;46.50;11.07;;;16.90;99.90;;;;;;4853123;29;20111;-90
2022/12/09 20:39:11;;;;;;;46.83;9.98;;;17.00;99.90;;;;;;4852640;29;20048;-90
2022/12/09 20:41:40;;;;;;;49.13;8.65;;;17.00;99.90;;;;;;4851595;29;20394;-90
2022/12/09 20:44:08;;;;;;;56.05;9.25;;;17.00;99.90;;;;;;4852747;29;20501;-88
2022/12/09 20:46:35;;;;;;;50.92;10.60;;;17.00;99.90;;;;;;4851859;29;20391;-89
2022/12/09 20:49:05;;;;;;;51.90;9.45;;;16.90;99.90;;;;;;4851453;29;20029;-89
2022/12/09 20:51:35;;;;;;;50.05;9.48;;;17.00;99.90;;;;;;4851360;29;20105;-88
2022/12/09 20:54:03;;;;;;;55.90;9.85;;;17.00;99.90;;;;;;4851923;29;20505;-90
2022/12/09 20:56:31;;;;;;;52.22;10.38;;;17.00;99.90;;;;;;4851842;29;20403;-90
2022/12/09 20:58:58;;;;;;;48.17;9.20;;;17.00;99.90;;;;;;4867522;29;20029;-89
2022/12/09 21:01:32;;;;;;;49.67;9.65;;;17.10;99.90;;;;;;4852693;29;20041;-89
2022/12/09 21:04:01;;;;;;;54.45;9.23;;;17.00;99.90;;;;;;4851116;29;20061;-88
2022/12/09 21:06:34;;;;;;;45.30;9.32;;;17.00;99.90;;;;;;4851513;29;20037;-89
2022/12/09 21:09:07;;;;;;;58.65;10.48;;;17.00;99.90;;;;;;4866808;29;20033;-91
2022/12/09 21:11:34;;;;;;;64.10;11.90;;;17.00;99.90;;;;;;4867506;29;20077;-91
2022/12/09 21:14:07;;;;;;;49.88;10.05;;;17.10;99.90;;;;;;4849774;29;20025;-90
2022/12/09 21:16:41;;;;;;;58.47;9.83;;;17.00;99.90;;;;;;4853007;29;20064;-89
2022/12/09 21:19:11;;;;;;;53.78;8.70;;;17.00;99.90;;;;;;4852040;29;20033;-90
2022/12/09 21:21:42;;;;;;;50.05;11.00;;;17.00;99.90;;;;;;4852813;29;20052;-90
2022/12/09 21:24:11;;;;;;;48.38;9.20;;;17.00;99.90;;;;;;4851381;29;20177;-89
2022/12/09 21:26:38;;;;;;;52.55;10.57;;;17.00;99.90;;;;;;4850551;29;20053;-88
2022/12/09 21:29:05;;;;;;;36.90;8.18;;;17.00;99.90;;;;;;4852464;29;20037;-90
2022/12/09 21:31:35;;;;;;;51.35;9.23;;;17.00;99.90;;;;;;4850917;29;20032;-90
2022/12/09 21:34:04;;;;;;;49.28;11.40;;;17.00;99.90;;;;;;4850606;29;20402;-89
2022/12/09 21:36:36;;;;;;;59.13;10.55;;;17.00;99.90;;;;;;4852735;29;20394;-91
2022/12/09 21:39:04;;;;;;;47.38;9.25;;;17.00;99.90;;;;;;4850105;29;20033;-90
2022/12/09 21:41:33;;;;;;;49.88;10.15;;;17.00;99.90;;;;;;4849708;29;20029;-90
2022/12/09 21:44:04;;;;;;;50.55;12.80;;;17.00;99.90;;;;;;4849843;29;20028;-89
2022/12/09 21:46:34;;;;;;;55.35;11.05;;;17.00;99.90;;;;;;4865110;29;20032;-89
2022/12/09 21:49:03;;;;;;;62.65;10.98;;;17.00;99.90;;;;;;4864945;29;20032;-90
2022/12/09 21:51:31;;;;;;;47.25;11.00;;;17.00;99.90;;;;;;4849730;29;20035;-91
2022/12/09 21:53:58;;;;;;;56.85;9.80;;;17.00;99.90;;;;;;4849690;29;20402;-89
2022/12/09 21:56:29;;;;;;;51.20;10.80;;;17.00;99.90;;;;;;4849620;29;20040;-90
2022/12/09 21:58:57;;;;;;;62.72;10.77;;;17.00;99.90;;;;;;4849566;29;20085;-89
2022/12/09 22:01:30;;;;;;;54.88;9.65;;;17.10;99.90;;;;;;4849343;29;20049;-91
2022/12/09 22:03:58;;;;;;;55.77;8.80;;;17.20;99.90;;;;;;4849176;29;20519;-88
2022/12/09 22:06:26;;;;;;;59.13;9.50;;;17.20;99.90;;;;;;4849403;29;20037;-88
2022/12/09 22:08:53;;;;;;;53.85;10.00;;;17.20;99.90;;;;;;4865316;29;20072;-89
2022/12/09 22:11:22;;;;;;;63.10;8.13;;;17.20;99.90;;;;;;4849436;29;20025;-89
2022/12/09 22:13:50;;;;;;;73.88;9.32;;;17.20;99.90;;;;;;4864683;29;20029;-88
2022/12/09 22:16:22;;;;;;;51.50;9.38;;;17.20;99.90;;;;;;4849235;29;20060;-89
2022/12/09 22:18:49;;;;;;;50.03;8.10;;;17.20;99.90;;;;;;4849173;29;20065;-89
2022/12/09 22:21:18;;;;;;;47.03;8.88;;;17.20;99.90;;;;;;4849033;29;20044;-89
2022/12/09 22:23:45;;;;;;;52.90;9.45;;;17.30;99.90;;;;;;4864459;29;20088;-89
2022/12/09 22:26:15;;;;;;;45.40;7.95;;;17.20;99.90;;;;;;4849155;29;20064;-89
2022/12/09 22:28:42;;;;;;;61.40;9.85;;;17.20;99.90;;;;;;4849137;29;20037;-88
2022/12/09 22:31:29;;;;;;;46.47;8.90;;;17.30;99.90;;;;;;4849001;29;20036;-89
2022/12/09 22:34:00;;;;;;;48.22;8.27;;;17.30;99.90;;;;;;4864403;29;20037;-91
2022/12/09 22:36:27;;;;;;;48.63;8.60;;;17.20;99.90;;;;;;4848978;29;20033;-88
2022/12/09 22:38:54;;;;;;;40.40;8.10;;;17.20;99.90;;;;;;4849135;29;20032;-90
2022/12/09 22:41:27;;;;;;;38.47;7.82;;;17.20;99.90;;;;;;4863891;29;20371;-90
2022/12/09 22:43:54;;;;;;;35.58;8.27;;;17.20;99.90;;;;;;4864146;29;20086;-90
2022/12/09 22:46:25;;;;;;;45.53;8.05;;;17.20;99.90;;;;;;4848790;29;20041;-88
2022/12/09 22:48:52;;;;;;;37.53;8.82;;;17.10;99.90;;;;;;4848451;29;20033;-90
2022/12/09 22:51:23;;;;;;;54.88;8.68;;;17.20;99.90;;;;;;4848541;29;20036;-88
2022/12/09 22:53:53;;;;;;;56.55;9.50;;;17.20;99.90;;;;;;4848497;29;20120;-88
2022/12/09 22:56:21;;;;;;;56.55;9.93;;;17.20;99.90;;;;;;4848592;29;20025;-89
2022/12/09 22:58:48;;;;;;;61.30;10.20;;;17.20;99.90;;;;;;4864129;29;20119;-88
2022/12/09 23:01:25;;;;;;;61.83;12.20;;;17.20;99.90;;;;;;4848790;29;20486;-89
2022/12/09 23:03:54;;;;;;;58.75;9.70;;;17.20;99.90;;;;;;4848404;29;20049;-89
2022/12/09 23:06:22;;;;;;;65.20;10.90;;;17.20;99.90;;;;;;4848463;29;20499;-88
2022/12/09 23:08:49;;;;;;;50.47;9.45;;;17.20;99.90;;;;;;4848528;29;20025;-89
2022/12/09 23:11:21;;;;;;;65.18;10.63;;;17.20;99.90;;;;;;4848625;29;20084;-88
2022/12/09 23:13:47;;;;;;;57.97;10.38;;;17.20;99.90;;;;;;4847977;29;20040;-89
2022/12/09 23:16:22;;;;;;;65.30;9.88;;;17.20;99.90;;;;;;4848337;29;20036;-88
2022/12/09 23:18:50;;;;;;;56.95;9.90;;;17.30;99.90;;;;;;4863756;29;20059;-88
2022/12/09 23:21:26;;;;;;;51.80;8.98;;;17.20;99.90;;;;;;4848398;29;20064;-88
2022/12/09 23:24:04;;;;;;;63.85;10.40;;;17.20;99.90;;;;;;4863668;29;20037;-88
2022/12/09 23:26:35;;;;;;;68.75;11.02;;;17.20;99.90;;;;;;4848241;29;20044;-88
2022/12/09 23:29:05;;;;;;;70.93;11.50;;;17.10;99.90;;;;;;4848210;29;20435;-89
2022/12/09 23:31:35;;;;;;;95.10;12.50;;;17.10;99.90;;;;;;4848535;29;20093;-90
2022/12/09 23:34:03;;;;;;;78.32;12.20;;;17.10;99.90;;;;;;4848412;29;20037;-89
2022/12/09 23:36:37;;;;;;;67.55;12.68;;;17.10;99.90;;;;;;4848244;29;20040;-92
2022/12/09 23:39:10;;;;;;;65.27;12.93;;;17.10;99.90;;;;;;4848256;29;20368;-91
2022/12/09 23:41:39;;;;;;;66.63;12.48;;;17.10;99.90;;;;;;4848151;29;20124;-90
2022/12/09 23:44:15;;;;;;;67.95;13.30;;;17.20;99.90;;;;;;4848136;29;20033;-90
2022/12/09 23:46:42;;;;;;;70.03;11.73;;;17.10;99.90;;;;;;4848033;29;20064;-91
2022/12/09 23:49:09;;;;;;;66.35;11.65;;;17.10;99.90;;;;;;4848288;29;20033;-90
2022/12/09 23:51:39;;;;;;;68.13;10.48;;;17.10;99.90;;;;;;4848146;29;20116;-90
2022/12/09 23:54:43;;;;;;;61.50;11.10;;;17.10;99.90;;;;;;4848144;29;20057;-90
2022/12/09 23:57:09;;;;;;;63.13;10.77;;;17.10;99.90;;;;;;4863422;29;20036;-89
2022/12/09 23:59:36;;;;;;;78.03;9.93;;;17.20;99.90;;;;;;4848065;29;20033;-90
